sensor_id;sensor_type;location;lat;lon;timestamp;pressure;altitude;pressure_sealevel;temperature;humidity
20027;BME280;10174;42.688;23.344;2023-02-02T00:02:10;95427.47;;;4.42;54.08
20027;BME280;10174;42.688;23.344;2023-02-02T00:04:36;95439.28;;;4.46;53.89
20027;BME280;10174;42.688;23.344;2023-02-02T00:07:02;95448.59;;;4.37;54.33
20027;BME280;10174;42.688;23.344;2023-02-02T00:09:30;95433.59;;;4.42;53.63
20027;BME280;10174;42.688;23.344;2023-02-02T00:11:57;95420.13;;;4.37;53.51
20027;BME280;10174;42.688;23.344;2023-02-02T00:14:23;95420.72;;;4.21;53.85
20027;BME280;10174;42.688;23.344;2023-02-02T00:16:50;95433.72;;;4.29;53.69
20027;BME280;10174;42.688;23.344;2023-02-02T00:21:43;95324.97;;;3.84;53.66
20027;BME280;10174;42.688;23.344;2023-02-02T00:24:11;95336.72;;;3.95;53.38
20027;BME280;10174;42.688;23.344;2023-02-02T00:26:38;95418.81;;;4.46;53.49
20027;BME280;10174;42.688;23.344;2023-02-02T00:29:05;95412.16;;;4.56;52.82
20027;BME280;10174;42.688;23.344;2023-02-02T00:31:31;95436.09;;;4.74;52.42
20027;BME280;10174;42.688;23.344;2023-02-02T00:33:56;95423.22;;;4.71;52.39
20027;BME280;10174;42.688;23.344;2023-02-02T00:36:22;95440.44;;;4.50;53.04
20027;BME280;10174;42.688;23.344;2023-02-02T00:38:48;95438.75;;;4.56;52.81
20027;BME280;10174;42.688;23.344;2023-02-02T00:41:14;95442.00;;;4.58;52.77
20027;BME280;10174;42.688;23.344;2023-02-02T00:43:40;95444.38;;;4.66;52.91
20027;BME280;10174;42.688;23.344;2023-02-02T00:46:09;95432.69;;;4.30;53.39
20027;BME280;10174;42.688;23.344;2023-02-02T00:48:36;95372.97;;;4.07;53.73
20027;BME280;10174;42.688;23.344;2023-02-02T00:51:01;95402.22;;;4.26;53.66
20027;BME280;10174;42.688;23.344;2023-02-02T00:53:27;95431.34;;;4.58;53.56
20027;BME280;10174;42.688;23.344;2023-02-02T00:55:52;95335.59;;;3.84;54.12
20027;BME280;10174;42.688;23.344;2023-02-02T00:58:17;95443.09;;;4.32;55.15
20027;BME280;10174;42.688;23.344;2023-02-02T01:00:43;95416.84;;;3.98;56.33
20027;BME280;10174;42.688;23.344;2023-02-02T01:03:08;95438.88;;;4.24;55.83
20027;BME280;10174;42.688;23.344;2023-02-02T01:05:35;95409.25;;;4.02;57.07
20027;BME280;10174;42.688;23.344;2023-02-02T01:08:00;95425.72;;;4.10;57.44
20027;BME280;10174;42.688;23.344;2023-02-02T01:10:26;95435.19;;;4.06;57.51
20027;BME280;10174;42.688;23.344;2023-02-02T01:12:52;95413.91;;;4.06;57.74
20027;BME280;10174;42.688;23.344;2023-02-02T01:15:17;95416.84;;;3.98;58.32
20027;BME280;10174;42.688;23.344;2023-02-02T01:17:43;95371.59;;;3.80;58.31
20027;BME280;10174;42.688;23.344;2023-02-02T01:20:14;95423.66;;;4.13;58.36
20027;BME280;10174;42.688;23.344;2023-02-02T01:22:40;95402.16;;;3.96;58.65
20027;BME280;10174;42.688;23.344;2023-02-02T01:25:05;95425.34;;;3.82;59.38
20027;BME280;10174;42.688;23.344;2023-02-02T01:27:31;95436.53;;;3.65;60.13
20027;BME280;10174;42.688;23.344;2023-02-02T01:29:56;95419.25;;;3.56;60.75
20027;BME280;10174;42.688;23.344;2023-02-02T01:32:22;95423.00;;;3.42;61.58
20027;BME280;10174;42.688;23.344;2023-02-02T01:34:47;95406.78;;;3.25;61.86
20027;BME280;10174;42.688;23.344;2023-02-02T01:37:12;95301.44;;;2.61;62.45
20027;BME280;10174;42.688;23.344;2023-02-02T01:39:38;95416.81;;;3.23;63.34
20027;BME280;10174;42.688;23.344;2023-02-02T01:42:11;95421.50;;;3.20;63.63
20027;BME280;10174;42.688;23.344;2023-02-02T01:45:04;95392.63;;;3.06;63.76
20027;BME280;10174;42.688;23.344;2023-02-02T01:47:33;95410.47;;;3.24;64.51
20027;BME280;10174;42.688;23.344;2023-02-02T01:50:01;95279.06;;;2.44;64.42
20027;BME280;10174;42.688;23.344;2023-02-02T01:52:28;95292.44;;;2.62;64.13
20027;BME280;10174;42.688;23.344;2023-02-02T01:54:59;95379.09;;;3.14;64.43
20027;BME280;10174;42.688;23.344;2023-02-02T01:57:32;95392.94;;;3.16;64.67
20027;BME280;10174;42.688;23.344;2023-02-02T02:00:02;95380.63;;;2.96;65.32
20027;BME280;10174;42.688;23.344;2023-02-02T02:02:30;95383.78;;;2.80;66.32
20027;BME280;10174;42.688;23.344;2023-02-02T02:04:56;95372.75;;;2.76;65.89
20027;BME280;10174;42.688;23.344;2023-02-02T02:07:22;95382.94;;;2.79;66.00
20027;BME280;10174;42.688;23.344;2023-02-02T02:09:47;95271.56;;;1.95;66.41
20027;BME280;10174;42.688;23.344;2023-02-02T02:12:14;95358.84;;;2.49;66.97
20027;BME280;10174;42.688;23.344;2023-02-02T02:14:42;95277.84;;;2.01;66.97
20027;BME280;10174;42.688;23.344;2023-02-02T02:17:35;95393.22;;;2.62;66.85
20027;BME280;10174;42.688;23.344;2023-02-02T02:32:55;95392.47;;;2.55;67.75
20027;BME280;10174;42.688;23.344;2023-02-02T02:37:41;95382.41;;;2.64;68.08
20027;BME280;10174;42.688;23.344;2023-02-02T02:42:57;95386.66;;;2.72;67.37
20027;BME280;10174;42.688;23.344;2023-02-02T02:45:25;95317.94;;;2.18;67.56
20027;BME280;10174;42.688;23.344;2023-02-02T02:47:51;95364.72;;;2.51;67.54
20027;BME280;10174;42.688;23.344;2023-02-02T02:50:17;95378.97;;;2.63;67.29
20027;BME280;10174;42.688;23.344;2023-02-02T02:52:43;95381.44;;;2.58;67.96
20027;BME280;10174;42.688;23.344;2023-02-02T02:55:10;95367.16;;;2.53;67.55
20027;BME280;10174;42.688;23.344;2023-02-02T03:05:52;95389.19;;;2.53;67.75
20027;BME280;10174;42.688;23.344;2023-02-02T03:10:45;95318.34;;;2.15;67.14
20027;BME280;10174;42.688;23.344;2023-02-02T03:13:12;95391.50;;;2.43;67.98
20027;BME280;10174;42.688;23.344;2023-02-02T03:15:43;95381.91;;;2.35;67.77
20027;BME280;10174;42.688;23.344;2023-02-02T03:18:13;95360.75;;;2.28;67.81
20027;BME280;10174;42.688;23.344;2023-02-02T03:20:38;95361.31;;;2.37;67.33
20027;BME280;10174;42.688;23.344;2023-02-02T03:23:04;95287.69;;;1.94;67.19
20027;BME280;10174;42.688;23.344;2023-02-02T03:25:29;95371.69;;;2.52;67.10
20027;BME280;10174;42.688;23.344;2023-02-02T03:27:55;95362.75;;;2.40;66.95
20027;BME280;10174;42.688;23.344;2023-02-02T03:30:22;95372.84;;;2.56;66.94
20027;BME280;10174;42.688;23.344;2023-02-02T03:32:48;95366.31;;;2.59;66.12
20027;BME280;10174;42.688;23.344;2023-02-02T03:35:15;95354.78;;;2.40;66.29
20027;BME280;10174;42.688;23.344;2023-02-02T03:37:41;95370.25;;;2.49;66.57
20027;BME280;10174;42.688;23.344;2023-02-02T03:40:06;95280.53;;;1.94;66.53
20027;BME280;10174;42.688;23.344;2023-02-02T03:42:32;95366.13;;;2.60;66.05
20027;BME280;10174;42.688;23.344;2023-02-02T03:44:57;95376.09;;;2.65;66.44
20027;BME280;10174;42.688;23.344;2023-02-02T03:47:22;95368.59;;;2.55;66.37
20027;BME280;10174;42.688;23.344;2023-02-02T03:49:48;95304.09;;;2.16;66.20
20027;BME280;10174;42.688;23.344;2023-02-02T03:52:13;95401.41;;;2.67;66.59
20027;BME280;10174;42.688;23.344;2023-02-02T03:54:39;95387.59;;;2.52;67.43
20027;BME280;10174;42.688;23.344;2023-02-02T03:57:04;95368.09;;;2.26;68.04
20027;BME280;10174;42.688;23.344;2023-02-02T03:59:29;95402.53;;;2.33;68.31
20027;BME280;10174;42.688;23.344;2023-02-02T04:01:55;95367.31;;;2.06;68.71
20027;BME280;10174;42.688;23.344;2023-02-02T04:04:20;95392.44;;;1.83;70.71
20027;BME280;10174;42.688;23.344;2023-02-02T04:06:45;95383.72;;;1.63;72.22
20027;BME280;10174;42.688;23.344;2023-02-02T04:09:11;95397.56;;;1.58;72.75
20027;BME280;10174;42.688;23.344;2023-02-02T04:11:36;95403.66;;;1.58;73.04
20027;BME280;10174;42.688;23.344;2023-02-02T04:14:01;95366.81;;;1.37;72.87
20027;BME280;10174;42.688;23.344;2023-02-02T04:16:27;95299.81;;;0.89;72.79
20027;BME280;10174;42.688;23.344;2023-02-02T04:18:53;95295.34;;;0.83;72.65
20027;BME280;10174;42.688;23.344;2023-02-02T04:21:19;95396.13;;;1.55;72.50
20027;BME280;10174;42.688;23.344;2023-02-02T04:23:44;95401.84;;;1.66;72.00
20027;BME280;10174;42.688;23.344;2023-02-02T04:26:09;95393.06;;;1.58;71.83
20027;BME280;10174;42.688;23.344;2023-02-02T04:28:35;95394.31;;;1.56;71.73
20027;BME280;10174;42.688;23.344;2023-02-02T04:31:00;95397.38;;;1.53;71.85
20027;BME280;10174;42.688;23.344;2023-02-02T04:33:26;95387.78;;;1.58;71.16
20027;BME280;10174;42.688;23.344;2023-02-02T04:35:52;95355.63;;;1.48;70.99
20027;BME280;10174;42.688;23.344;2023-02-02T04:38:18;95404.47;;;1.72;70.87
20027;BME280;10174;42.688;23.344;2023-02-02T04:40:45;95394.31;;;1.76;70.81
20027;BME280;10174;42.688;23.344;2023-02-02T04:43:11;95401.22;;;1.77;70.45
20027;BME280;10174;42.688;23.344;2023-02-02T04:45:37;95381.47;;;1.46;70.93
20027;BME280;10174;42.688;23.344;2023-02-02T04:48:03;95404.09;;;1.55;70.80
20027;BME280;10174;42.688;23.344;2023-02-02T04:50:28;95404.69;;;1.71;70.59
20027;BME280;10174;42.688;23.344;2023-02-02T04:52:54;95417.94;;;1.71;71.11
20027;BME280;10174;42.688;23.344;2023-02-02T04:55:20;95415.50;;;1.76;70.91
20027;BME280;10174;42.688;23.344;2023-02-02T04:57:46;95388.63;;;1.46;70.93
20027;BME280;10174;42.688;23.344;2023-02-02T05:00:11;95415.91;;;1.46;71.72
20027;BME280;10174;42.688;23.344;2023-02-02T05:02:38;95411.00;;;1.43;71.93
20027;BME280;10174;42.688;23.344;2023-02-02T05:05:05;95381.88;;;1.30;71.65
20027;BME280;10174;42.688;23.344;2023-02-02T05:07:31;95422.41;;;1.37;72.38
20027;BME280;10174;42.688;23.344;2023-02-02T05:09:56;95393.47;;;1.15;72.84
20027;BME280;10174;42.688;23.344;2023-02-02T05:12:21;95399.59;;;1.36;71.97
20027;BME280;10174;42.688;23.344;2023-02-02T05:14:47;95391.44;;;1.17;72.75
20027;BME280;10174;42.688;23.344;2023-02-02T05:17:12;95386.34;;;1.09;72.54
20027;BME280;10174;42.688;23.344;2023-02-02T05:19:38;95399.19;;;1.12;72.85
20027;BME280;10174;42.688;23.344;2023-02-02T05:22:03;95351.50;;;0.85;72.66
20027;BME280;10174;42.688;23.344;2023-02-02T05:24:28;95405.31;;;1.19;72.53
20027;BME280;10174;42.688;23.344;2023-02-02T05:26:54;95364.13;;;0.83;73.11
20027;BME280;10174;42.688;23.344;2023-02-02T05:29:23;95397.53;;;0.98;72.71
20027;BME280;10174;42.688;23.344;2023-02-02T05:31:48;95397.53;;;1.11;72.73
20027;BME280;10174;42.688;23.344;2023-02-02T05:34:14;95344.16;;;0.74;72.70
20027;BME280;10174;42.688;23.344;2023-02-02T05:36:39;95397.13;;;1.08;72.49
20027;BME280;10174;42.688;23.344;2023-02-02T05:39:05;95408.34;;;1.30;71.40
20027;BME280;10174;42.688;23.344;2023-02-02T05:41:30;95403.66;;;1.18;71.23
20027;BME280;10174;42.688;23.344;2023-02-02T05:43:58;95434.22;;;1.28;71.86
20027;BME280;10174;42.688;23.344;2023-02-02T05:46:23;95420.38;;;1.39;70.95
20027;BME280;10174;42.688;23.344;2023-02-02T05:48:48;95393.88;;;1.12;71.49
20027;BME280;10174;42.688;23.344;2023-02-02T05:51:17;95406.94;;;1.27;71.29
20027;BME280;10174;42.688;23.344;2023-02-02T05:53:44;95416.31;;;1.36;71.15
20027;BME280;10174;42.688;23.344;2023-02-02T05:56:10;95388.59;;;1.12;70.97
20027;BME280;10174;42.688;23.344;2023-02-02T05:58:36;95428.53;;;1.24;71.70
20027;BME280;10174;42.688;23.344;2023-02-02T06:01:01;95421.34;;;1.11;72.23
20027;BME280;10174;42.688;23.344;2023-02-02T06:03:27;95437.66;;;1.21;72.61
20027;BME280;10174;42.688;23.344;2023-02-02T06:05:53;95433.38;;;1.20;72.04
20027;BME280;10174;42.688;23.344;2023-02-02T06:08:18;95394.28;;;1.02;72.05
20027;BME280;10174;42.688;23.344;2023-02-02T06:10:43;95412.19;;;1.20;71.86
20027;BME280;10174;42.688;23.344;2023-02-02T06:13:09;95362.69;;;0.74;71.44
20027;BME280;10174;42.688;23.344;2023-02-02T06:15:35;95359.03;;;0.75;71.85
20027;BME280;10174;42.688;23.344;2023-02-02T06:18:00;95415.47;;;1.09;71.38
20027;BME280;10174;42.688;23.344;2023-02-02T06:20:26;95443.16;;;1.27;71.91
20027;BME280;10174;42.688;23.344;2023-02-02T06:22:52;95437.47;;;1.30;71.61
20027;BME280;10174;42.688;23.344;2023-02-02T06:25:17;95437.69;;;1.35;71.30
20027;BME280;10174;42.688;23.344;2023-02-02T06:27:43;95438.31;;;1.30;71.17
20027;BME280;10174;42.688;23.344;2023-02-02T06:30:11;95422.19;;;1.18;70.92
20027;BME280;10174;42.688;23.344;2023-02-02T06:32:37;95417.09;;;1.23;70.85
20027;BME280;10174;42.688;23.344;2023-02-02T06:35:03;95464.16;;;1.41;71.24
20027;BME280;10174;42.688;23.344;2023-02-02T06:37:29;95453.41;;;1.50;70.13
20027;BME280;10174;42.688;23.344;2023-02-02T06:39:55;95466.84;;;1.55;70.84
20027;BME280;10174;42.688;23.344;2023-02-02T06:42:20;95463.97;;;1.43;70.48
20027;BME280;10174;42.688;23.344;2023-02-02T06:44:45;95457.44;;;1.32;70.28
20027;BME280;10174;42.688;23.344;2023-02-02T06:47:11;95448.06;;;1.43;70.44
20027;BME280;10174;42.688;23.344;2023-02-02T06:49:36;95430.56;;;1.55;69.90
20027;BME280;10174;42.688;23.344;2023-02-02T06:52:02;95475.81;;;1.74;69.38
20027;BME280;10174;42.688;23.344;2023-02-02T06:54:27;95477.84;;;1.72;69.86
20027;BME280;10174;42.688;23.344;2023-02-02T06:56:52;95423.66;;;1.41;69.34
20027;BME280;10174;42.688;23.344;2023-02-02T06:59:19;95471.72;;;1.78;70.11
20027;BME280;10174;42.688;23.344;2023-02-02T07:01:44;95464.00;;;1.70;69.29
20027;BME280;10174;42.688;23.344;2023-02-02T07:04:12;95449.72;;;1.57;69.75
20027;BME280;10174;42.688;23.344;2023-02-02T07:06:38;95475.41;;;1.97;69.07
20027;BME280;10174;42.688;23.344;2023-02-02T07:09:03;95459.91;;;2.01;68.50
20027;BME280;10174;42.688;23.344;2023-02-02T07:11:32;95435.66;;;1.70;68.74
20027;BME280;10174;42.688;23.344;2023-02-02T07:14:00;95459.09;;;1.73;70.26
20027;BME280;10174;42.688;23.344;2023-02-02T07:16:25;95451.97;;;1.67;70.80
20027;BME280;10174;42.688;23.344;2023-02-02T07:18:50;95393.09;;;1.45;70.00
20027;BME280;10174;42.688;23.344;2023-02-02T07:21:20;95455.41;;;2.08;69.76
20027;BME280;10174;42.688;23.344;2023-02-02T07:23:46;95484.97;;;2.25;69.60
20027;BME280;10174;42.688;23.344;2023-02-02T07:26:16;95468.84;;;2.13;69.03
20027;BME280;10174;42.688;23.344;2023-02-02T07:28:42;95473.94;;;2.21;69.43
20027;BME280;10174;42.688;23.344;2023-02-02T07:31:19;95478.88;;;2.11;69.60
20027;BME280;10174;42.688;23.344;2023-02-02T07:33:46;95488.00;;;2.15;69.96
20027;BME280;10174;42.688;23.344;2023-02-02T07:36:13;95375.34;;;1.66;68.97
20027;BME280;10174;42.688;23.344;2023-02-02T07:38:41;95481.88;;;2.21;69.13
20027;BME280;10174;42.688;23.344;2023-02-02T07:41:06;95480.84;;;2.29;68.77
20027;BME280;10174;42.688;23.344;2023-02-02T07:43:32;95486.34;;;2.41;68.37
20027;BME280;10174;42.688;23.344;2023-02-02T07:46:00;95488.00;;;2.42;68.71
20027;BME280;10174;42.688;23.344;2023-02-02T07:48:28;95472.66;;;2.57;67.86
20027;BME280;10174;42.688;23.344;2023-02-02T07:50:57;95464.56;;;2.91;67.22
20027;BME280;10174;42.688;23.344;2023-02-02T07:53:23;95448.59;;;2.97;66.24
20027;BME280;10174;42.688;23.344;2023-02-02T07:55:48;95454.66;;;3.11;65.54
20027;BME280;10174;42.688;23.344;2023-02-02T07:58:14;95437.78;;;2.99;66.48
20027;BME280;10174;42.688;23.344;2023-02-02T08:00:39;95456.34;;;3.06;66.84
20027;BME280;10174;42.688;23.344;2023-02-02T08:03:05;95454.28;;;3.08;66.91
20027;BME280;10174;42.688;23.344;2023-02-02T08:05:30;95444.66;;;3.07;65.67
20027;BME280;10174;42.688;23.344;2023-02-02T08:07:56;95432.97;;;3.14;64.63
20027;BME280;10174;42.688;23.344;2023-02-02T08:10:22;95430.53;;;3.19;64.53
20027;BME280;10174;42.688;23.344;2023-02-02T08:12:47;95400.06;;;3.22;64.63
20027;BME280;10174;42.688;23.344;2023-02-02T08:15:13;95421.13;;;3.74;63.76
20027;BME280;10174;42.688;23.344;2023-02-02T08:17:38;95443.53;;;4.10;62.64
20027;BME280;10174;42.688;23.344;2023-02-02T08:20:04;95434.53;;;4.30;62.05
20027;BME280;10174;42.688;23.344;2023-02-02T08:22:30;95418.66;;;4.41;61.52
20027;BME280;10174;42.688;23.344;2023-02-02T08:24:55;95419.34;;;4.37;60.78
20027;BME280;10174;42.688;23.344;2023-02-02T08:27:21;95366.75;;;3.95;61.79
20027;BME280;10174;42.688;23.344;2023-02-02T08:29:46;95399.19;;;4.04;62.77
20027;BME280;10174;42.688;23.344;2023-02-02T08:32:11;95344.28;;;3.72;63.33
20027;BME280;10174;42.688;23.344;2023-02-02T08:34:37;95428.97;;;4.13;64.14
20027;BME280;10174;42.688;23.344;2023-02-02T08:37:03;95416.72;;;4.12;64.41
20027;BME280;10174;42.688;23.344;2023-02-02T08:39:28;95385.16;;;3.97;62.98
20027;BME280;10174;42.688;23.344;2023-02-02T08:41:54;95392.91;;;4.17;63.52
20027;BME280;10174;42.688;23.344;2023-02-02T08:44:20;95366.94;;;4.19;60.54
20027;BME280;10174;42.688;23.344;2023-02-02T08:46:46;95389.88;;;4.69;57.72
20027;BME280;10174;42.688;23.344;2023-02-02T08:49:11;95399.84;;;4.92;56.16
20027;BME280;10174;42.688;23.344;2023-02-02T08:51:37;95390.00;;;5.23;55.57
20027;BME280;10174;42.688;23.344;2023-02-02T08:54:03;95287.31;;;4.85;54.34
20027;BME280;10174;42.688;23.344;2023-02-02T08:56:28;95382.53;;;5.55;55.25
20027;BME280;10174;42.688;23.344;2023-02-02T08:58:55;95389.81;;;5.48;55.12
20027;BME280;10174;42.688;23.344;2023-02-02T09:01:26;95365.81;;;5.36;53.85
20027;BME280;10174;42.688;23.344;2023-02-02T09:04:00;95382.41;;;5.62;54.14
20027;BME280;10174;42.688;23.344;2023-02-02T09:06:36;95391.94;;;5.81;53.01
20027;BME280;10174;42.688;23.344;2023-02-02T09:09:03;95382.00;;;5.88;52.53
20027;BME280;10174;42.688;23.344;2023-02-02T09:11:29;95391.72;;;5.95;52.77
20027;BME280;10174;42.688;23.344;2023-02-02T09:13:57;95383.06;;;6.11;52.31
20027;BME280;10174;42.688;23.344;2023-02-02T09:16:25;95317.53;;;5.80;51.37
20027;BME280;10174;42.688;23.344;2023-02-02T09:18:50;95357.28;;;6.40;51.06
20027;BME280;10174;42.688;23.344;2023-02-02T09:21:17;95268.81;;;5.96;50.32
20027;BME280;10174;42.688;23.344;2023-02-02T09:23:44;95350.38;;;6.56;50.12
20027;BME280;10174;42.688;23.344;2023-02-02T09:26:25;95373.34;;;6.69;49.98
20027;BME280;10174;42.688;23.344;2023-02-02T09:29:00;95362.22;;;6.60;49.74
20027;BME280;10174;42.688;23.344;2023-02-02T09:31:27;95377.50;;;6.77;50.48
20027;BME280;10174;42.688;23.344;2023-02-02T09:33:53;95352.69;;;6.65;50.15
20027;BME280;10174;42.688;23.344;2023-02-02T09:36:20;95308.75;;;6.44;50.18
20027;BME280;10174;42.688;23.344;2023-02-02T09:38:47;95353.53;;;6.82;49.76
20027;BME280;10174;42.688;23.344;2023-02-02T09:43:50;95356.22;;;7.11;49.87
20027;BME280;10174;42.688;23.344;2023-02-02T09:46:37;95333.13;;;6.76;50.06
20027;BME280;10174;42.688;23.344;2023-02-02T09:49:09;95371.03;;;6.90;50.55
20027;BME280;10174;42.688;23.344;2023-02-02T09:51:43;95264.72;;;6.29;49.86
20027;BME280;10174;42.688;23.344;2023-02-02T09:54:32;95348.31;;;6.87;50.25
20027;BME280;10174;42.688;23.344;2023-02-02T09:57:01;95334.81;;;6.94;50.01
20027;BME280;10174;42.688;23.344;2023-02-02T09:59:36;95333.03;;;7.00;49.32
20027;BME280;10174;42.688;23.344;2023-02-02T10:02:14;95353.63;;;7.16;49.52
20027;BME280;10174;42.688;23.344;2023-02-02T10:04:44;95319.25;;;7.37;48.58
20027;BME280;10174;42.688;23.344;2023-02-02T10:07:16;95342.66;;;7.63;47.86
20027;BME280;10174;42.688;23.344;2023-02-02T10:10:02;95337.88;;;7.31;48.61
20027;BME280;10174;42.688;23.344;2023-02-02T10:12:48;95325.28;;;7.83;47.08
20027;BME280;10174;42.688;23.344;2023-02-02T10:17:50;95317.69;;;8.53;45.94
20027;BME280;10174;42.688;23.344;2023-02-02T10:20:37;95311.78;;;9.00;44.95
20027;BME280;10174;42.688;23.344;2023-02-02T10:23:32;95299.56;;;9.79;42.70
20027;BME280;10174;42.688;23.344;2023-02-02T10:32:23;95275.97;;;11.44;39.23
20027;BME280;10174;42.688;23.344;2023-02-02T10:37:34;95291.56;;;11.16;38.61
20027;BME280;10174;42.688;23.344;2023-02-02T10:40:36;95285.13;;;11.79;37.92
20027;BME280;10174;42.688;23.344;2023-02-02T10:43:24;95272.13;;;13.27;35.37
20027;BME280;10174;42.688;23.344;2023-02-02T10:46:32;95196.34;;;11.48;36.77
20027;BME280;10174;42.688;23.344;2023-02-02T10:49:57;95240.91;;;13.21;34.54
20027;BME280;10174;42.688;23.344;2023-02-02T10:52:15;95260.66;;;11.65;36.44
20027;BME280;10174;42.688;23.344;2023-02-02T10:54:59;95237.72;;;11.99;36.42
20027;BME280;10174;42.688;23.344;2023-02-02T10:57:38;95141.94;;;12.82;34.79
20027;BME280;10174;42.688;23.344;2023-02-02T11:00:22;95241.19;;;14.80;32.46
20027;BME280;10174;42.688;23.344;2023-02-02T11:02:50;95228.19;;;15.01;31.82
20027;BME280;10174;42.688;23.344;2023-02-02T11:05:27;95242.88;;;14.95;31.13
20027;BME280;10174;42.688;23.344;2023-02-02T11:08:19;95243.75;;;12.95;34.74
20027;BME280;10174;42.688;23.344;2023-02-02T11:10:51;95229.13;;;12.02;36.21
20027;BME280;10174;42.688;23.344;2023-02-02T11:13:40;95164.34;;;12.27;35.13
20027;BME280;10174;42.688;23.344;2023-02-02T11:18:43;95212.63;;;13.13;34.77
20027;BME280;10174;42.688;23.344;2023-02-02T11:21:23;95199.81;;;13.29;33.75
20027;BME280;10174;42.688;23.344;2023-02-02T11:23:51;95164.22;;;14.29;32.25
20027;BME280;10174;42.688;23.344;2023-02-02T11:26:17;95202.03;;;13.57;34.13
20027;BME280;10174;42.688;23.344;2023-02-02T11:28:47;95174.53;;;13.20;33.81
20027;BME280;10174;42.688;23.344;2023-02-02T11:31:36;95192.28;;;12.52;34.60
20027;BME280;10174;42.688;23.344;2023-02-02T11:34:22;95200.03;;;11.99;35.78
20027;BME280;10174;42.688;23.344;2023-02-02T11:37:02;95168.91;;;11.36;36.70
20027;BME280;10174;42.688;23.344;2023-02-02T11:39:34;95172.13;;;11.53;36.66
20027;BME280;10174;42.688;23.344;2023-02-02T11:42:03;95193.13;;;11.46;36.54
20027;BME280;10174;42.688;23.344;2023-02-02T11:44:31;95167.84;;;11.47;36.65
20027;BME280;10174;42.688;23.344;2023-02-02T11:47:01;95143.28;;;11.69;36.14
20027;BME280;10174;42.688;23.344;2023-02-02T11:49:36;95127.50;;;11.37;36.43
20027;BME280;10174;42.688;23.344;2023-02-02T11:52:05;95127.72;;;12.32;34.67
20027;BME280;10174;42.688;23.344;2023-02-02T11:54:33;95142.13;;;12.06;35.80
20027;BME280;10174;42.688;23.344;2023-02-02T11:57:02;95166.06;;;12.63;35.62
20027;BME280;10174;42.688;23.344;2023-02-02T11:59:39;95109.50;;;12.13;35.35
20027;BME280;10174;42.688;23.344;2023-02-02T12:04:37;95098.97;;;12.61;35.12
20027;BME280;10174;42.688;23.344;2023-02-02T12:07:28;95150.47;;;12.60;35.23
20027;BME280;10174;42.688;23.344;2023-02-02T12:09:58;95148.97;;;12.33;35.22
20027;BME280;10174;42.688;23.344;2023-02-02T12:15:42;95155.06;;;12.94;34.24
20027;BME280;10174;42.688;23.344;2023-02-02T12:23:24;95150.66;;;11.02;38.32
20027;BME280;10174;42.688;23.344;2023-02-02T12:39:44;95160.38;;;9.40;39.78
20027;BME280;10174;42.688;23.344;2023-02-02T12:45:29;95062.31;;;8.32;39.93
20027;BME280;10174;42.688;23.344;2023-02-02T12:53:55;95163.34;;;8.69;40.56
20027;BME280;10174;42.688;23.344;2023-02-02T13:02:30;95155.69;;;8.83;40.16
20027;BME280;10174;42.688;23.344;2023-02-02T13:07:57;95156.13;;;8.69;40.03
20027;BME280;10174;42.688;23.344;2023-02-02T13:12:55;95133.13;;;8.73;40.21
20027;BME280;10174;42.688;23.344;2023-02-02T13:15:28;95151.88;;;9.11;39.43
20027;BME280;10174;42.688;23.344;2023-02-02T13:17:58;95112.66;;;8.62;39.41
20027;BME280;10174;42.688;23.344;2023-02-02T13:22:58;95162.97;;;9.25;39.38
20027;BME280;10174;42.688;23.344;2023-02-02T13:25:34;95114.81;;;8.60;40.63
20027;BME280;10174;42.688;23.344;2023-02-02T13:28:00;95076.00;;;8.35;41.04
20027;BME280;10174;42.688;23.344;2023-02-02T13:30:34;95144.28;;;8.65;41.24
20027;BME280;10174;42.688;23.344;2023-02-02T13:33:12;95144.50;;;8.59;41.11
20027;BME280;10174;42.688;23.344;2023-02-02T13:36:07;95142.97;;;8.41;40.55
20027;BME280;10174;42.688;23.344;2023-02-02T13:38:34;95075.81;;;8.15;39.81
20027;BME280;10174;42.688;23.344;2023-02-02T13:41:07;95151.94;;;8.51;39.92
20027;BME280;10174;42.688;23.344;2023-02-02T13:43:49;95152.19;;;8.50;40.42
20027;BME280;10174;42.688;23.344;2023-02-02T13:49:17;95169.09;;;8.28;41.27
20027;BME280;10174;42.688;23.344;2023-02-02T14:00:29;95151.41;;;8.27;42.27
20027;BME280;10174;42.688;23.344;2023-02-02T14:03:03;95158.84;;;8.20;42.67
20027;BME280;10174;42.688;23.344;2023-02-02T14:05:37;95155.03;;;8.16;43.32
20027;BME280;10174;42.688;23.344;2023-02-02T14:08:15;95152.25;;;8.06;44.63
20027;BME280;10174;42.688;23.344;2023-02-02T14:10:43;95158.84;;;8.20;45.20
20027;BME280;10174;42.688;23.344;2023-02-02T14:13:16;95145.09;;;8.38;46.59
20027;BME280;10174;42.688;23.344;2023-02-02T14:16:04;95159.69;;;8.48;46.97
20027;BME280;10174;42.688;23.344;2023-02-02T14:18:57;95133.38;;;8.72;46.86
20027;BME280;10174;42.688;23.344;2023-02-02T14:32:27;95187.41;;;7.14;52.54
20027;BME280;10174;42.688;23.344;2023-02-02T14:37:55;95221.19;;;6.57;63.50
20027;BME280;10174;42.688;23.344;2023-02-02T14:40:44;95230.81;;;6.01;68.86
20027;BME280;10174;42.688;23.344;2023-02-02T14:43:40;95244.41;;;5.76;67.53
20027;BME280;10174;42.688;23.344;2023-02-02T14:51:32;95309.00;;;4.70;76.75
20027;BME280;10174;42.688;23.344;2023-02-02T14:54:01;95277.38;;;4.31;79.54
20027;BME280;10174;42.688;23.344;2023-02-02T14:56:46;95310.78;;;3.71;83.29
20027;BME280;10174;42.688;23.344;2023-02-02T14:59:38;95332.16;;;3.58;85.46
20027;BME280;10174;42.688;23.344;2023-02-02T15:02:12;95351.84;;;3.50;87.12
20027;BME280;10174;42.688;23.344;2023-02-02T15:04:39;95364.66;;;3.28;87.41
20027;BME280;10174;42.688;23.344;2023-02-02T15:09:58;95347.97;;;2.57;88.42
20027;BME280;10174;42.688;23.344;2023-02-02T15:12:32;95372.22;;;2.61;89.30
20027;BME280;10174;42.688;23.344;2023-02-02T15:15:11;95367.13;;;2.59;90.60
20027;BME280;10174;42.688;23.344;2023-02-02T15:20:14;95399.38;;;2.56;91.19
20027;BME280;10174;42.688;23.344;2023-02-02T15:25:49;95414.53;;;2.42;87.15
20027;BME280;10174;42.688;23.344;2023-02-02T15:28:20;95426.44;;;2.26;88.92